Time;durP1;ratioP1;P1;durP2;ratioP2;P2;SDS_P1;SDS_P2;PMS_P1;PMS_P2;Temp;Humidity;BMP_temperature;BMP_pressure;BME280_temperature;BME280_humidity;BME280_pressure;Samples;Min_cycle;Max_cycle;Signal;HPM_P1;HPM_P2
2023/09/15 00:00:42;;;;;;;3.63;1.20;;;;;;;12.90;100.00;101624.16;6030297;28;20030;-66
2023/09/15 00:03:37;;;;;;;3.42;1.48;;;;;;;12.70;100.00;101617.97;6029839;28;20285;-66
2023/09/15 00:06:35;;;;;;;2.27;1.30;;;;;;;12.49;100.00;101609.25;6029703;28;20393;-65
2023/09/15 00:09:31;;;;;;;5.63;1.25;;;;;;;12.56;100.00;101629.00;6033689;28;20034;-65
2023/09/15 00:12:26;;;;;;;5.38;1.45;;;;;;;12.27;100.00;101618.28;6025387;28;20076;-65
2023/09/15 00:15:22;;;;;;;5.40;1.40;;;;;;;12.06;100.00;101609.53;6029158;28;20070;-65
2023/09/15 00:18:18;;;;;;;4.83;1.33;;;;;;;12.09;100.00;101605.75;6026245;28;20027;-65
2023/09/15 00:21:16;;;;;;;5.38;1.63;;;;;;;12.27;100.00;101602.31;6021821;28;20026;-65
2023/09/15 00:24:11;;;;;;;4.10;1.20;;;;;;;12.10;100.00;101599.44;6022814;28;20034;-65
2023/09/15 00:27:06;;;;;;;2.17;1.30;;;;;;;12.14;100.00;101609.69;6025258;28;20478;-65
2023/09/15 00:30:03;;;;;;;5.27;1.33;;;;;;;12.02;100.00;101623.19;6029408;28;20273;-65
2023/09/15 00:32:58;;;;;;;2.83;1.58;;;;;;;11.89;100.00;101618.94;6029601;28;20033;-65
2023/09/15 00:35:53;;;;;;;4.07;1.67;;;;;;;11.88;100.00;101617.25;6028609;28;20397;-65
2023/09/15 00:38:49;;;;;;;3.90;1.50;;;;;;;11.97;100.00;101620.09;6029186;28;20034;-65
2023/09/15 00:41:44;;;;;;;4.38;1.60;;;;;;;11.91;100.00;101618.81;6028020;28;20062;-65
2023/09/15 00:44:39;;;;;;;3.30;1.23;;;;;;;11.90;100.00;101599.34;6028486;28;20393;-65
2023/09/15 00:47:36;;;;;;;4.03;1.60;;;;;;;11.73;100.00;101607.97;6029393;28;20034;-65
2023/09/15 00:50:32;;;;;;;5.78;1.60;;;;;;;11.77;100.00;101597.88;6023539;28;20038;-65
2023/09/15 00:53:27;;;;;;;4.47;1.88;;;;;;;11.83;100.00;101608.00;6027461;28;20034;-65
2023/09/15 00:56:23;;;;;;;4.70;1.40;;;;;;;11.73;100.00;101615.09;6028077;28;20975;-65
2023/09/15 00:59:18;;;;;;;6.43;1.70;;;;;;;11.56;100.00;101599.69;6028230;28;20034;-65
2023/09/15 01:02:13;;;;;;;5.50;1.83;;;;;;;11.56;100.00;101600.53;6029141;28;20038;-65
2023/09/15 01:05:19;;;;;;;2.53;1.30;;;;;;;11.58;100.00;101611.88;6028283;28;20284;-65
2023/09/15 01:08:15;;;;;;;3.20;1.60;;;;;;;11.61;100.00;101593.03;6021376;28;20038;-66
2023/09/15 01:11:11;;;;;;;3.83;1.83;;;;;;;11.63;100.00;101601.69;6029259;28;20031;-65
2023/09/15 01:14:06;;;;;;;3.50;1.77;;;;;;;11.51;100.00;101565.56;6027701;28;20049;-65
2023/09/15 01:17:12;;;;;;;4.97;1.38;;;;;;;11.54;100.00;101596.34;6028566;28;20023;-65
2023/09/15 01:20:21;;;;;;;3.75;1.40;;;;;;;11.40;100.00;101602.81;6027205;28;20130;-65
2023/09/15 01:23:41;;;;;;;3.22;1.60;;;;;;;11.26;100.00;101603.13;6020437;28;20041;-65
2023/09/15 01:26:36;;;;;;;;;;;;;;;11.46;100.00;101604.97;6034279;28;20027;-65
2023/09/15 01:29:39;;;;;;;3.00;1.50;;;;;;;11.46;100.00;101604.13;6028236;28;19953;-65
2023/09/15 01:32:35;;;;;;;4.13;1.52;;;;;;;11.33;100.00;101599.81;6023484;28;20041;-65
2023/09/15 01:35:32;;;;;;;4.18;1.52;;;;;;;11.32;100.00;101589.34;6026178;28;20034;-65
2023/09/15 01:38:27;;;;;;;3.45;1.58;;;;;;;11.20;100.00;101590.34;6028142;28;20489;-65
2023/09/15 01:41:22;;;;;;;4.13;1.60;;;;;;;11.40;100.00;101594.84;6027826;28;20038;-65
2023/09/15 01:44:18;;;;;;;4.43;1.40;;;;;;;11.29;100.00;101602.88;6027368;28;20037;-65
2023/09/15 01:47:20;;;;;;;2.53;1.27;;;;;;;11.36;100.00;101610.19;6018632;28;20290;-65
2023/09/15 01:50:16;;;;;;;5.30;1.48;;;;;;;11.30;100.00;101607.22;6042178;28;20389;-65
2023/09/15 01:53:11;;;;;;;5.85;2.10;;;;;;;11.41;100.00;101608.97;6026431;28;20065;-65
2023/09/15 01:56:07;;;;;;;8.43;2.10;;;;;;;11.34;100.00;101590.91;6026454;28;20034;-65
2023/09/15 01:59:02;;;;;;;3.03;1.65;;;;;;;11.01;100.00;101574.28;6026322;28;20033;-65
2023/09/15 02:01:57;;;;;;;11.23;2.07;;;;;;;10.96;100.00;101561.41;6026310;28;20081;-65
2023/09/15 02:04:53;;;;;;;6.60;1.90;;;;;;;10.83;100.00;101594.38;6026951;28;20034;-65
2023/09/15 02:07:48;;;;;;;4.43;1.88;;;;;;;11.02;100.00;101594.56;6027592;28;20080;-65
2023/09/15 02:10:43;;;;;;;5.28;2.05;;;;;;;11.13;100.00;101587.41;6031115;28;20034;-65
2023/09/15 02:13:40;;;;;;;5.13;1.90;;;;;;;11.25;100.00;101577.56;6026909;28;20042;-65
2023/09/15 02:16:35;;;;;;;2.92;1.58;;;;;;;11.22;100.00;101575.16;6026259;28;20042;-65
2023/09/15 02:19:30;;;;;;;4.78;1.60;;;;;;;11.06;100.00;101585.38;6027360;28;20409;-65
2023/09/15 02:22:26;;;;;;;4.87;1.53;;;;;;;10.95;100.00;101577.47;6026566;28;20036;-65
2023/09/15 02:25:21;;;;;;;6.20;1.70;;;;;;;10.74;100.00;101580.91;6025976;28;20038;-65
2023/09/15 02:28:20;;;;;;;6.77;1.87;;;;;;;10.68;100.00;101594.66;6027053;28;20549;-65
2023/09/15 02:31:15;;;;;;;3.80;1.50;;;;;;;10.55;100.00;101574.56;6025527;28;20057;-65
2023/09/15 02:34:11;;;;;;;4.15;1.73;;;;;;;10.46;100.00;101570.84;6026396;28;20596;-65
2023/09/15 02:37:07;;;;;;;5.40;1.97;;;;;;;10.37;100.00;101576.06;6026841;28;20034;-65
2023/09/15 02:40:03;;;;;;;3.95;1.50;;;;;;;10.67;100.00;101589.50;6026471;28;20316;-65
2023/09/15 02:42:58;;;;;;;7.50;1.90;;;;;;;10.68;100.00;101578.75;6026016;28;20034;-65
2023/09/15 02:45:54;;;;;;;3.60;1.70;;;;;;;10.62;100.00;101586.38;6030825;28;20033;-65
2023/09/15 02:48:49;;;;;;;7.33;1.80;;;;;;;10.58;100.00;101580.47;6019125;28;20489;-65
2023/09/15 02:51:44;;;;;;;4.33;1.70;;;;;;;10.47;100.00;101566.41;6025694;28;20297;-65
2023/09/15 02:54:40;;;;;;;7.20;1.87;;;;;;;10.52;100.00;101570.38;6025589;28;20038;-65
2023/09/15 02:57:35;;;;;;;7.53;2.10;;;;;;;10.37;100.00;101581.38;6024354;28;20315;-65
2023/09/15 03:00:30;;;;;;;5.73;2.47;;;;;;;10.45;100.00;101585.09;6026172;28;20104;-65
2023/09/15 03:03:26;;;;;;;5.53;2.17;;;;;;;10.64;100.00;101582.63;6026431;28;20034;-65
2023/09/15 03:06:22;;;;;;;4.95;1.73;;;;;;;10.68;100.00;101578.75;6025397;28;20026;-65
2023/09/15 03:09:17;;;;;;;5.80;2.08;;;;;;;10.76;100.00;101573.66;6027021;28;20056;-65
2023/09/15 03:12:12;;;;;;;10.13;2.67;;;;;;;10.62;100.00;101570.47;6025842;28;20066;-65
2023/09/15 03:15:26;;;;;;;6.27;2.57;;;;;;;10.57;100.00;101576.13;6025194;28;20117;-65
2023/09/15 03:18:21;;;;;;;5.95;2.65;;;;;;;10.51;100.00;101575.81;6022360;28;20539;-65
2023/09/15 03:21:17;;;;;;;7.53;2.85;;;;;;;10.50;100.00;101566.16;6026106;28;20034;-65
2023/09/15 03:24:12;;;;;;;7.47;3.60;;;;;;;10.69;100.00;101567.19;6020887;28;20069;-65
2023/09/15 03:27:07;;;;;;;5.10;2.60;;;;;;;10.83;100.00;101579.31;6025964;28;20092;-65
2023/09/15 03:30:06;;;;;;;7.03;2.90;;;;;;;10.77;100.00;101585.97;6025729;28;20030;-65
2023/09/15 03:33:02;;;;;;;6.38;3.35;;;;;;;10.59;100.00;101563.63;6028035;28;20121;-65
2023/09/15 03:35:58;;;;;;;5.60;2.60;;;;;;;10.61;100.00;101577.59;6022930;28;20128;-65
2023/09/15 03:38:54;;;;;;;7.07;2.60;;;;;;;10.55;100.00;101575.41;6025531;28;20168;-65
2023/09/15 03:41:49;;;;;;;7.33;2.47;;;;;;;10.28;100.00;101553.78;6025273;28;20069;-65
2023/09/15 03:44:44;;;;;;;7.23;2.80;;;;;;;10.23;100.00;101552.47;6024147;28;20370;-65
2023/09/15 03:47:39;;;;;;;5.80;2.60;;;;;;;10.34;100.00;101561.25;6025448;28;20553;-65
2023/09/15 03:50:35;;;;;;;4.53;2.50;;;;;;;10.48;100.00;101561.00;6025806;28;20026;-65
2023/09/15 03:53:30;;;;;;;5.80;2.60;;;;;;;10.63;100.00;101545.63;6024890;28;20099;-65
2023/09/15 03:56:25;;;;;;;5.73;2.43;;;;;;;10.79;100.00;101551.34;6025258;28;20037;-65
2023/09/15 03:59:21;;;;;;;3.60;1.90;;;;;;;10.59;100.00;101560.97;6025164;28;20066;-65
2023/09/15 04:02:16;;;;;;;5.53;2.20;;;;;;;10.28;100.00;101552.94;6025250;28;20280;-65
2023/09/15 04:05:11;;;;;;;6.20;2.30;;;;;;;10.24;100.00;101548.88;6024892;28;20030;-65
2023/09/15 04:08:07;;;;;;;8.30;2.78;;;;;;;10.27;100.00;101541.53;6025244;28;20509;-65
2023/09/15 04:11:02;;;;;;;7.70;3.13;;;;;;;10.18;100.00;101539.59;6026013;28;20034;-65
2023/09/15 04:13:57;;;;;;;11.33;3.40;;;;;;;10.05;100.00;101550.31;6024364;28;20032;-65
2023/09/15 04:16:53;;;;;;;6.97;3.03;;;;;;;10.14;100.00;101559.34;6024946;28;20272;-65
2023/09/15 04:19:48;;;;;;;8.17;2.60;;;;;;;10.07;100.00;101555.47;6023853;28;20085;-65
2023/09/15 04:22:43;;;;;;;8.93;2.57;;;;;;;9.93;100.00;101561.03;6013283;28;20034;-65
2023/09/15 04:25:38;;;;;;;7.53;2.43;;;;;;;9.75;100.00;101555.38;6024566;28;20039;-65
2023/09/15 04:28:34;;;;;;;4.30;2.00;;;;;;;9.71;100.00;101540.69;6021200;28;20262;-65
2023/09/15 04:31:29;;;;;;;5.13;1.92;;;;;;;9.64;100.00;101543.94;6023871;28;20525;-65
2023/09/15 04:34:25;;;;;;;8.83;2.40;;;;;;;9.45;100.00;101557.75;6020093;28;20066;-65
2023/09/15 04:37:21;;;;;;;8.30;2.33;;;;;;;9.35;100.00;101544.38;6029462;28;20022;-65
2023/09/15 04:40:16;;;;;;;7.93;3.30;;;;;;;9.39;100.00;101544.97;6027554;28;20053;-65
2023/09/15 04:43:12;;;;;;;7.97;2.70;;;;;;;9.38;100.00;101559.16;6037376;28;20031;-65
2023/09/15 04:46:08;;;;;;;7.55;2.38;;;;;;;9.21;100.00;101541.97;6028763;28;20617;-64
2023/09/15 04:49:04;;;;;;;9.40;2.80;;;;;;;9.24;100.00;101552.28;6025192;28;20109;-64
2023/09/15 04:51:59;;;;;;;3.85;2.10;;;;;;;9.22;100.00;101538.34;6019583;28;20057;-64
2023/09/15 04:54:55;;;;;;;6.55;2.45;;;;;;;9.25;100.00;101548.69;6028519;28;20027;-64
2023/09/15 04:57:51;;;;;;;4.32;2.00;;;;;;;9.29;100.00;101539.56;6028860;28;20026;-64
2023/09/15 05:00:48;;;;;;;6.13;2.08;;;;;;;9.29;100.00;101539.56;6028111;28;20042;-64
2023/09/15 05:03:44;;;;;;;8.20;2.22;;;;;;;9.40;100.00;101555.44;6028629;28;20366;-64
2023/09/15 05:06:39;;;;;;;4.35;2.10;;;;;;;9.31;100.00;101531.50;6027994;28;20084;-64
2023/09/15 05:09:35;;;;;;;6.13;2.03;;;;;;;9.38;100.00;101559.16;6032873;28;20038;-64
2023/09/15 05:12:30;;;;;;;4.87;2.23;;;;;;;9.66;100.00;101560.53;6027899;28;20176;-64
2023/09/15 05:15:25;;;;;;;5.37;2.30;;;;;;;9.69;100.00;101550.56;6020634;28;20096;-64
2023/09/15 05:18:20;;;;;;;3.87;2.00;;;;;;;9.82;100.00;101569.81;6028569;28;20030;-64
2023/09/15 05:21:16;;;;;;;5.87;2.27;;;;;;;9.93;100.00;101563.69;6028431;28;20060;-64
2023/09/15 05:24:11;;;;;;;7.50;3.23;;;;;;;10.00;100.00;101541.88;6027448;28;20037;-64
2023/09/15 05:27:06;;;;;;;8.83;4.20;;;;;;;10.13;100.00;101566.47;6026172;28;20026;-64
2023/09/15 05:30:03;;;;;;;7.07;2.80;;;;;;;10.16;100.00;101558.25;6025796;28;20034;-64
2023/09/15 05:32:58;;;;;;;5.78;1.80;;;;;;;10.32;100.00;101542.00;6028011;28;20033;-64
2023/09/15 05:35:55;;;;;;;8.10;2.33;;;;;;;10.81;100.00;101559.19;6027372;28;20433;-64
2023/09/15 05:38:50;;;;;;;5.95;2.00;;;;;;;10.75;100.00;101561.38;6028259;28;20033;-64
2023/09/15 05:41:46;;;;;;;5.25;2.15;;;;;;;11.07;100.00;101556.03;6027916;28;20026;-64
2023/09/15 05:44:41;;;;;;;6.17;1.90;;;;;;;11.29;100.00;101560.38;6027419;28;20042;-64
2023/09/15 05:47:36;;;;;;;5.97;2.23;;;;;;;11.52;100.00;101558.44;6022963;28;20030;-64
2023/09/15 05:50:32;;;;;;;7.47;1.97;;;;;;;11.43;100.00;101562.72;6011096;28;20073;-64
2023/09/15 05:53:27;;;;;;;4.95;2.03;;;;;;;11.78;100.00;101560.56;6024640;28;20037;-64
2023/09/15 05:56:23;;;;;;;8.30;1.90;;;;;;;11.82;100.00;101553.19;6019702;28;20040;-64
2023/09/15 05:59:18;;;;;;;4.97;2.10;;;;;;;11.90;100.00;101562.16;6042851;28;20505;-64
2023/09/15 06:02:14;;;;;;;4.80;2.20;;;;;;;11.92;100.00;101557.56;6028086;28;20169;-64
2023/09/15 06:05:09;;;;;;;4.40;1.88;;;;;;;11.70;100.00;101555.06;6010472;28;20030;-64
2023/09/15 06:08:06;;;;;;;5.90;2.10;;;;;;;11.69;100.00;101566.66;6021729;28;20473;-64
2023/09/15 06:11:03;;;;;;;5.47;2.08;;;;;;;12.29;100.00;101573.75;6033572;28;20273;-64
2023/09/15 06:13:58;;;;;;;4.35;2.13;;;;;;;12.38;100.00;101556.16;6027215;28;20109;-65
2023/09/15 06:16:53;;;;;;;5.90;1.90;;;;;;;12.67;100.00;101562.34;6018690;28;20494;-64
2023/09/15 06:19:48;;;;;;;7.10;1.83;;;;;;;13.10;100.00;101557.47;6027425;28;20042;-64
2023/09/15 06:22:44;;;;;;;8.53;2.40;;;;;;;13.02;100.00;101559.97;6027234;28;20059;-64
2023/09/15 06:25:40;;;;;;;5.20;1.90;;;;;;;13.15;100.00;101546.41;6026103;28;20113;-64
2023/09/15 06:28:35;;;;;;;3.67;1.83;;;;;;;13.46;100.00;101557.69;6022128;28;20045;-64
2023/09/15 06:31:31;;;;;;;7.38;2.30;;;;;;;13.02;100.00;101536.00;6034102;28;20038;-64
2023/09/15 06:34:27;;;;;;;6.77;2.27;;;;;;;13.06;100.00;101558.72;6026377;28;20117;-65
2023/09/15 06:37:22;;;;;;;5.03;2.28;;;;;;;13.69;100.00;101567.06;6022818;28;20030;-66
2023/09/15 06:40:17;;;;;;;4.00;2.20;;;;;;;13.71;100.00;101546.41;6022495;28;20031;-65
2023/09/15 06:43:13;;;;;;;6.07;2.20;;;;;;;13.90;100.00;101558.81;6026694;28;20113;-65
2023/09/15 06:46:10;;;;;;;6.18;2.25;;;;;;;13.88;100.00;101556.31;6024777;28;20132;-65
2023/09/15 06:49:05;;;;;;;6.45;2.33;;;;;;;14.06;100.00;101557.22;6026376;28;20506;-66
2023/09/15 06:52:01;;;;;;;6.83;2.60;;;;;;;13.77;100.00;101564.50;6026464;28;20093;-65
2023/09/15 06:54:56;;;;;;;5.27;2.30;;;;;;;13.64;100.00;101558.66;6024492;28;20077;-65
2023/09/15 06:57:52;;;;;;;5.88;2.35;;;;;;;13.85;100.00;101555.75;6026020;28;20041;-65
2023/09/15 07:00:47;;;;;;;6.93;2.90;;;;;;;13.63;100.00;101525.81;6025096;28;20049;-66
2023/09/15 07:03:42;;;;;;;5.18;2.40;;;;;;;13.98;100.00;101550.94;6025830;28;20136;-66
2023/09/15 07:06:38;;;;;;;7.57;2.20;;;;;;;14.32;100.00;101544.06;6025603;28;20046;-65
2023/09/15 07:09:34;;;;;;;6.43;3.25;;;;;;;14.51;98.81;101543.09;6023992;28;20034;-66
2023/09/15 07:12:29;;;;;;;9.32;2.80;;;;;;;14.52;98.73;101539.41;6025902;28;20062;-65
2023/09/15 07:15:24;;;;;;;6.38;2.67;;;;;;;14.56;97.50;101540.81;6023911;28;20042;-65
2023/09/15 07:18:20;;;;;;;5.07;2.30;;;;;;;14.71;97.62;101544.59;6026091;28;20030;-65
2023/09/15 07:21:15;;;;;;;6.30;3.00;;;;;;;14.67;97.49;101532.56;6025680;28;20031;-65
2023/09/15 07:24:11;;;;;;;6.25;2.45;;;;;;;15.10;96.43;101540.63;6024436;28;20038;-66
2023/09/15 07:27:08;;;;;;;8.77;2.53;;;;;;;15.37;93.62;101547.69;6025319;28;20445;-65
2023/09/15 07:30:04;;;;;;;7.03;1.98;;;;;;;15.19;92.06;101554.91;6025249;28;20088;-65
2023/09/15 07:33:01;;;;;;;5.63;2.55;;;;;;;15.31;91.21;101543.78;6025375;28;20022;-65
2023/09/15 07:36:04;;;;;;;9.02;2.30;;;;;;;15.34;90.19;101548.84;6024341;28;20535;-65
2023/09/15 07:38:59;;;;;;;11.25;3.05;;;;;;;15.19;90.48;101550.38;6023800;28;20035;-66
2023/09/15 07:41:55;;;;;;;5.90;2.57;;;;;;;15.37;89.89;101553.03;6024412;28;20054;-65
2023/09/15 07:44:50;;;;;;;8.77;2.50;;;;;;;15.68;87.84;101546.22;6024119;28;20308;-65
2023/09/15 07:47:46;;;;;;;10.13;2.43;;;;;;;15.66;89.16;101537.53;6025473;28;20148;-65
2023/09/15 07:50:41;;;;;;;10.15;3.10;;;;;;;15.90;86.27;101547.50;6025277;28;20379;-65
2023/09/15 07:53:36;;;;;;;9.67;2.60;;;;;;;16.07;86.55;101536.72;6025059;28;20440;-65
2023/09/15 07:56:31;;;;;;;8.37;3.13;;;;;;;16.07;85.19;101549.25;6024747;28;20356;-66
2023/09/15 07:59:27;;;;;;;7.27;2.50;;;;;;;16.04;85.86;101531.69;6024857;28;20469;-65
2023/09/15 08:02:23;;;;;;;5.83;2.50;;;;;;;16.37;84.49;101546.03;6025521;28;20022;-66
2023/09/15 08:05:19;;;;;;;6.18;2.90;;;;;;;16.58;82.21;101530.38;6024050;28;20042;-66
2023/09/15 08:08:14;;;;;;;5.70;2.43;;;;;;;16.72;82.00;101531.56;6025413;28;20098;-65
2023/09/15 08:11:09;;;;;;;7.10;2.70;;;;;;;16.92;82.74;101521.38;6029193;28;20070;-65
2023/09/15 08:14:05;;;;;;;8.20;2.23;;;;;;;16.99;80.97;101528.56;6029295;28;20261;-65
2023/09/15 08:17:00;;;;;;;5.43;2.33;;;;;;;17.00;80.68;101530.25;6017718;28;20015;-65
2023/09/15 08:19:56;;;;;;;5.88;2.22;;;;;;;17.05;79.22;101533.25;6029780;28;20481;-66
2023/09/15 08:22:51;;;;;;;8.30;2.63;;;;;;;16.95;80.03;101516.53;6026020;28;20034;-65
2023/09/15 08:25:46;;;;;;;5.90;2.10;;;;;;;17.22;80.18;101526.91;6028716;28;20033;-65
2023/09/15 08:28:42;;;;;;;6.77;2.13;;;;;;;17.57;79.37;101525.69;6023025;28;20478;-65
2023/09/15 08:31:37;;;;;;;8.77;2.20;;;;;;;17.63;77.94;101514.28;6029113;28;20290;-65
2023/09/15 08:34:32;;;;;;;5.67;2.00;;;;;;;17.99;76.86;101511.13;6027414;28;20277;-66
2023/09/15 08:37:28;;;;;;;6.23;2.20;;;;;;;17.69;75.72;101504.69;6029480;28;20152;-65
2023/09/15 08:40:23;;;;;;;6.80;1.90;;;;;;;17.75;76.31;101520.94;6029522;28;20116;-66
2023/09/15 08:43:19;;;;;;;6.80;2.00;;;;;;;18.10;75.79;101524.16;6028848;28;20282;-65
2023/09/15 08:46:14;;;;;;;8.98;2.38;;;;;;;18.39;74.02;101514.44;6028634;28;20319;-65
2023/09/15 08:49:10;;;;;;;4.90;2.05;;;;;;;18.30;72.86;101518.16;6028896;28;20040;-66
2023/09/15 08:52:06;;;;;;;7.30;2.70;;;;;;;18.21;72.61;101507.63;6028527;28;20057;-65
2023/09/15 08:55:02;;;;;;;6.87;2.60;;;;;;;18.26;73.47;101508.78;6027213;28;20041;-65
2023/09/15 08:57:59;;;;;;;5.68;2.08;;;;;;;18.48;73.08;101523.28;6028552;28;20280;-65
2023/09/15 09:00:54;;;;;;;5.28;1.98;;;;;;;18.70;72.67;101492.06;6027353;28;20034;-66
2023/09/15 09:03:50;;;;;;;6.18;1.80;;;;;;;19.23;69.06;101518.00;6028211;28;20066;-66
2023/09/15 09:06:45;;;;;;;5.30;2.20;;;;;;;19.06;69.41;101514.63;6028477;28;20049;-65
2023/09/15 09:09:41;;;;;;;5.85;2.20;;;;;;;18.84;69.56;101508.25;6032984;28;20421;-66
2023/09/15 09:12:37;;;;;;;6.68;2.17;;;;;;;19.24;69.37;101498.19;6019475;28;20038;-66
2023/09/15 09:15:32;;;;;;;5.80;1.87;;;;;;;19.17;69.85;101507.97;6028030;28;20037;-66
2023/09/15 09:18:28;;;;;;;7.68;2.15;;;;;;;18.96;69.97;101498.75;6028263;28;20120;-65
2023/09/15 09:21:26;;;;;;;6.55;2.28;;;;;;;19.65;67.81;101485.97;6028142;28;20090;-66
2023/09/15 09:24:23;;;;;;;6.93;2.00;;;;;;;19.40;68.56;101492.66;6025956;28;20046;-66
2023/09/15 09:27:18;;;;;;;5.55;2.45;;;;;;;19.28;67.33;101484.16;6024479;28;20042;-65
2023/09/15 09:30:14;;;;;;;6.90;2.10;;;;;;;19.56;67.69;101485.25;6025212;28;20078;-65
2023/09/15 09:33:10;;;;;;;4.73;1.77;;;;;;;20.02;64.83;101487.72;6027582;28;20393;-65
2023/09/15 09:36:15;;;;;;;6.55;2.50;;;;;;;19.45;64.42;101485.72;6027358;28;20069;-67
2023/09/15 09:39:10;;;;;;;4.70;2.05;;;;;;;19.30;65.75;101470.53;6027705;28;20081;-66
2023/09/15 09:42:06;;;;;;;3.27;1.63;;;;;;;19.46;64.12;101448.84;6027870;28;20121;-66
2023/09/15 09:45:03;;;;;;;6.25;2.50;;;;;;;19.74;64.29;101474.09;6025697;28;20050;-65
2023/09/15 09:48:02;;;;;;;3.95;1.92;;;;;;;19.65;63.85;101464.44;6026192;28;20030;-66
2023/09/15 09:50:58;;;;;;;7.13;2.70;;;;;;;19.77;63.15;101454.88;6027810;28;20041;-66
2023/09/15 09:53:55;;;;;;;6.18;2.08;;;;;;;19.91;62.24;101456.72;6022112;28;20037;-65
2023/09/15 09:56:50;;;;;;;5.68;2.10;;;;;;;20.48;61.71;101472.09;6027063;28;20042;-66
2023/09/15 09:59:45;;;;;;;6.77;2.37;;;;;;;20.10;62.02;101464.19;6026982;28;20374;-66
2023/09/15 10:02:42;;;;;;;4.30;1.93;;;;;;;20.37;60.63;101443.78;6027407;28;20062;-65
2023/09/15 10:05:38;;;;;;;7.45;2.55;;;;;;;20.47;60.38;101459.63;6026899;28;20434;-67
2023/09/15 10:08:34;;;;;;;5.88;2.25;;;;;;;20.49;61.10;101444.13;6025933;28;20041;-65
2023/09/15 10:11:29;;;;;;;3.95;1.95;;;;;;;20.41;60.99;101444.25;6028418;28;20117;-66
2023/09/15 10:14:26;;;;;;;6.55;2.13;;;;;;;20.76;59.87;101435.25;6025704;28;20042;-66
2023/09/15 10:17:22;;;;;;;4.72;2.05;;;;;;;20.59;60.23;101440.06;6026858;28;20118;-66
2023/09/15 10:20:18;;;;;;;6.43;2.20;;;;;;;20.66;59.72;101437.44;6027301;28;20531;-65
2023/09/15 10:23:13;;;;;;;5.45;2.28;;;;;;;20.77;60.09;101436.91;6026426;28;20426;-66
2023/09/15 10:26:09;;;;;;;6.05;2.17;;;;;;;20.91;58.42;101448.63;6029999;28;20049;-66
2023/09/15 10:29:05;;;;;;;6.15;2.08;;;;;;;20.89;57.79;101438.06;6027844;28;20057;-65
2023/09/15 10:32:04;;;;;;;4.30;2.33;;;;;;;20.68;57.55;101440.78;6025312;28;20493;-66
2023/09/15 10:34:59;;;;;;;7.40;2.25;;;;;;;20.98;57.19;101425.25;6025712;28;20092;-66
2023/09/15 10:38:02;;;;;;;4.43;2.00;;;;;;;21.14;57.01;101425.81;6025651;28;20038;-66
2023/09/15 10:41:01;;;;;;;6.38;2.40;;;;;;;21.04;56.07;101413.66;6026756;28;20034;-66
2023/09/15 10:43:56;;;;;;;4.15;2.42;;;;;;;20.95;57.24;101415.69;6025847;28;20042;-66
2023/09/15 10:46:52;;;;;;;5.50;2.33;;;;;;;21.18;55.38;101416.28;6016601;28;20038;-66
2023/09/15 10:49:52;;;;;;;6.25;2.13;;;;;;;21.30;53.88;101417.41;6026107;28;20088;-65
2023/09/15 10:52:47;;;;;;;;;;;;;;;21.48;54.18;101426.84;6023726;28;20037;-66
2023/09/15 10:55:42;;;;;;;4.27;2.30;;;;;;;21.32;53.98;101412.66;6025645;28;20313;-66
2023/09/15 10:58:38;;;;;;;4.37;1.90;;;;;;;21.04;54.63;101414.50;6025526;28;20030;-66
2023/09/15 11:01:33;;;;;;;4.18;2.35;;;;;;;21.00;55.38;101407.84;6026410;28;20126;-66
2023/09/15 11:04:29;;;;;;;4.57;2.20;;;;;;;21.36;54.38;101410.41;6023651;28;20042;-66
2023/09/15 11:07:25;;;;;;;4.35;2.05;;;;;;;21.29;53.22;101410.34;6024200;28;20076;-66
2023/09/15 11:10:20;;;;;;;6.25;2.58;;;;;;;21.09;54.09;101405.88;6027765;28;20061;-66
2023/09/15 11:13:15;;;;;;;8.20;2.47;;;;;;;21.22;52.83;101403.25;6023471;28;20042;-66
2023/09/15 11:16:11;;;;;;;6.07;2.70;;;;;;;21.28;52.63;101402.44;6025214;28;20466;-66
2023/09/15 11:19:06;;;;;;;5.13;2.60;;;;;;;21.14;53.69;101409.63;6024366;28;20161;-66
2023/09/15 11:22:03;;;;;;;4.57;2.47;;;;;;;21.28;53.40;101405.97;6026136;28;20045;-66
2023/09/15 11:24:58;;;;;;;7.15;2.85;;;;;;;21.10;54.13;101391.31;6024185;28;20481;-66
2023/09/15 11:27:54;;;;;;;5.37;2.13;;;;;;;21.53;53.35;101402.78;6018906;28;20033;-65
2023/09/15 11:30:51;;;;;;;4.10;2.20;;;;;;;21.47;53.33;101379.31;6025567;28;20289;-66
2023/09/15 11:33:48;;;;;;;6.55;2.67;;;;;;;21.77;52.73;101388.75;6027812;28;20405;-66
2023/09/15 11:36:43;;;;;;;4.32;2.40;;;;;;;21.83;52.86;101385.25;6025044;28;20052;-67
2023/09/15 11:39:38;;;;;;;5.85;2.40;;;;;;;22.11;52.55;101388.69;6025198;28;20489;-67
2023/09/15 11:42:34;;;;;;;5.50;2.00;;;;;;;22.28;51.52;101375.63;6024125;28;20108;-66
2023/09/15 11:45:30;;;;;;;4.55;2.08;;;;;;;22.13;50.45;101358.75;6031960;28;20362;-66
2023/09/15 11:48:26;;;;;;;7.60;2.38;;;;;;;22.04;51.38;101385.13;6033024;28;20045;-66
2023/09/15 11:51:21;;;;;;;5.35;2.42;;;;;;;22.12;51.51;101371.44;6032155;28;20501;-67
2023/09/15 11:54:16;;;;;;;5.67;2.60;;;;;;;22.47;51.65;101375.63;6031126;28;20046;-66
2023/09/15 11:57:23;;;;;;;4.45;2.13;;;;;;;22.09;52.61;101365.59;6033128;28;20269;-67
2023/09/15 12:00:19;;;;;;;;;;;;;;;22.42;51.47;101367.28;6031750;28;20041;-66
2023/09/15 12:03:14;;;;;;;4.53;2.33;;;;;;;22.19;51.45;101361.47;6031366;28;19921;-67
2023/09/15 12:06:10;;;;;;;4.40;2.42;;;;;;;22.12;52.19;101355.22;6032672;28;20034;-66
2023/09/15 12:09:05;;;;;;;5.35;2.65;;;;;;;22.49;52.38;101365.44;6033587;28;20465;-66
2023/09/15 12:12:01;;;;;;;4.80;2.27;;;;;;;22.01;51.59;101347.72;6031926;28;20071;-66
2023/09/15 12:15:01;;;;;;;5.97;2.63;;;;;;;22.51;51.68;101354.41;6032051;28;20058;-66
2023/09/15 12:17:56;;;;;;;4.63;2.35;;;;;;;22.48;50.93;101347.53;6032806;28;20273;-67
2023/09/15 12:20:53;;;;;;;5.27;2.07;;;;;;;22.11;50.68;101337.34;6032908;28;20026;-66
2023/09/15 12:23:51;;;;;;;6.47;2.55;;;;;;;22.33;50.26;101330.72;6032480;28;20293;-66
2023/09/15 12:26:46;;;;;;;5.22;2.25;;;;;;;22.80;50.09;101342.38;6032811;28;20041;-67
2023/09/15 12:29:41;;;;;;;3.42;1.90;;;;;;;23.11;50.04;101346.03;6048222;28;20038;-66
2023/09/15 12:32:37;;;;;;;3.40;2.20;;;;;;;22.63;50.03;101331.16;6032282;28;20038;-66
2023/09/15 12:35:38;;;;;;;4.10;2.25;;;;;;;22.95;50.06;101341.09;6032179;28;20038;-66
2023/09/15 12:38:34;;;;;;;4.40;2.00;;;;;;;22.94;49.43;101323.16;6032557;28;20077;-67
2023/09/15 12:41:34;;;;;;;5.40;2.50;;;;;;;22.72;50.45;101318.25;6032693;28;20030;-66
2023/09/15 12:44:29;;;;;;;5.40;2.28;;;;;;;22.70;51.60;101328.41;6030855;28;20026;-67
2023/09/15 12:47:24;;;;;;;5.83;2.70;;;;;;;22.68;50.98;101306.16;6033040;28;20084;-67
2023/09/15 12:50:20;;;;;;;4.50;2.00;;;;;;;22.69;50.89;101307.84;6032193;28;20054;-66
2023/09/15 12:53:15;;;;;;;7.10;2.20;;;;;;;23.07;50.04;101309.59;6031856;28;20335;-67
2023/09/15 12:56:10;;;;;;;4.13;2.40;;;;;;;23.08;49.36;101310.44;6028901;28;20084;-66
2023/09/15 12:59:06;;;;;;;4.10;2.13;;;;;;;23.12;50.40;101295.44;6028318;28;20080;-67
2023/09/15 13:02:01;;;;;;;6.60;2.77;;;;;;;23.05;49.72;101291.91;6029183;28;20270;-67
2023/09/15 13:04:56;;;;;;;4.43;2.30;;;;;;;22.96;51.04;101304.03;6027687;28;20508;-67
2023/09/15 13:07:52;;;;;;;4.43;2.50;;;;;;;22.95;50.81;101275.31;6028510;28;20034;-66
2023/09/15 13:10:47;;;;;;;5.83;3.10;;;;;;;23.09;50.24;101298.59;6031158;28;20042;-67
2023/09/15 13:13:42;;;;;;;6.50;3.33;;;;;;;23.14;49.11;101290.66;6021114;28;20043;-66
2023/09/15 13:16:38;;;;;;;4.90;2.30;;;;;;;23.28;49.71;101288.72;6027198;28;20030;-67
2023/09/15 13:19:33;;;;;;;6.90;2.47;;;;;;;22.88;49.81;101274.50;6028201;28;20037;-67
2023/09/15 13:22:28;;;;;;;6.07;2.47;;;;;;;23.18;49.09;101274.81;6028408;28;20053;-67
2023/09/15 13:25:23;;;;;;;5.77;2.60;;;;;;;22.81;50.01;101268.28;6019246;28;20489;-66
2023/09/15 13:28:19;;;;;;;6.90;2.23;;;;;;;22.85;49.98;101269.53;6026626;28;20038;-67
2023/09/15 13:31:14;;;;;;;5.53;2.63;;;;;;;22.97;49.35;101262.41;6028503;28;20272;-65
2023/09/15 13:34:10;;;;;;;6.43;2.77;;;;;;;22.83;50.49;101264.31;6014470;28;20035;-66